Time;durP1;ratioP1;P1;durP2;ratioP2;P2;SDS_P1;SDS_P2;PMS_P1;PMS_P2;Temp;Humidity;BMP_temperature;BMP_pressure;BME280_temperature;BME280_humidity;BME280_pressure;Samples;Min_cycle;Max_cycle;Signal;HPM_P1;HPM_P2
2021/12/28 00:00:55;;;;;;;124.00;38.83;;;5.90;99.90;;;;;;5055080;28;20041;-78
2021/12/28 00:03:21;;;;;;;123.85;39.08;;;5.90;99.90;;;;;;5055008;28;20033;-84
2021/12/28 00:05:46;;;;;;;116.10;37.60;;;5.90;99.90;;;;;;5054895;28;20486;-78
2021/12/28 00:08:13;;;;;;;118.68;37.85;;;6.30;99.90;;;;;;5053486;28;20063;-78
2021/12/28 00:10:40;;;;;;;117.63;36.88;;;6.50;99.90;;;;;;5053587;28;20503;-85
2021/12/28 00:13:05;;;;;;;124.45;38.20;;;6.00;99.90;;;;;;5053783;28;20049;-78
2021/12/28 00:15:43;;;;;;;114.10;36.63;;;6.00;99.90;;;;;;5053505;28;20494;-78
2021/12/28 00:18:08;;;;;;;110.63;36.30;;;6.00;99.90;;;;;;5054702;28;20088;-78
2021/12/28 00:20:39;;;;;;;122.90;37.53;;;6.00;99.90;;;;;;5054687;28;20480;-78
2021/12/28 00:23:10;;;;;;;124.15;37.40;;;6.10;99.90;;;;;;5056164;28;20099;-79
2021/12/28 00:25:36;;;;;;;121.15;37.25;;;6.00;99.90;;;;;;5054752;28;20483;-78
2021/12/28 00:28:02;;;;;;;144.55;38.47;;;6.10;99.90;;;;;;5054682;28;20045;-78
2021/12/28 00:30:29;;;;;;;142.20;38.95;;;6.10;99.90;;;;;;5054373;28;20088;-78
2021/12/28 00:32:56;;;;;;;116.57;36.72;;;6.10;99.90;;;;;;5054393;28;20143;-78
2021/12/28 00:35:31;;;;;;;130.70;37.80;;;6.10;99.90;;;;;;5054241;28;20487;-78
2021/12/28 00:37:57;;;;;;;124.40;37.72;;;6.10;99.90;;;;;;5053053;28;20487;-78
2021/12/28 00:40:23;;;;;;;132.57;38.25;;;6.40;99.90;;;;;;5053061;28;20098;-79
2021/12/28 00:42:49;;;;;;;135.70;38.25;;;6.40;99.90;;;;;;5054224;28;20119;-78
2021/12/28 00:45:15;;;;;;;140.60;36.92;;;6.10;99.90;;;;;;5054278;28;20126;-78
2021/12/28 00:47:41;;;;;;;162.55;41.05;;;6.50;99.90;;;;;;5054124;28;20486;-86
2021/12/28 00:50:10;;;;;;;206.82;43.42;;;6.10;99.90;;;;;;5053204;28;20399;-78
2021/12/28 00:52:36;;;;;;;162.55;39.45;;;6.10;99.90;;;;;;5054041;28;20453;-78
2021/12/28 00:55:04;;;;;;;180.82;42.50;;;6.10;99.90;;;;;;5054030;28;20071;-78
2021/12/28 00:57:29;;;;;;;192.98;42.50;;;6.10;99.90;;;;;;5054049;28;20048;-86
2021/12/28 00:59:55;;;;;;;173.48;40.63;;;6.10;99.90;;;;;;5054036;28;20039;-78
2021/12/28 01:02:21;;;;;;;240.95;45.95;;;6.20;99.90;;;;;;5052514;28;20506;-78
2021/12/28 01:04:46;;;;;;;184.65;40.88;;;6.30;99.90;;;;;;5052615;28;20479;-78
2021/12/28 01:07:12;;;;;;;207.43;43.53;;;6.10;99.90;;;;;;5053852;28;20518;-79
2021/12/28 01:09:39;;;;;;;200.93;42.65;;;6.10;99.90;;;;;;5054088;28;20398;-85
2021/12/28 01:12:06;;;;;;;238.77;45.72;;;6.10;99.90;;;;;;5052467;28;20055;-78
2021/12/28 01:14:32;;;;;;;231.10;46.13;;;6.10;99.90;;;;;;5052646;28;20080;-86
2021/12/28 01:16:59;;;;;;;259.15;46.38;;;6.10;99.90;;;;;;5053762;28;20076;-78
2021/12/28 01:19:27;;;;;;;280.77;48.40;;;6.00;99.90;;;;;;5069371;28;20074;-79
2021/12/28 01:21:53;;;;;;;265.30;47.10;;;6.10;99.90;;;;;;5053811;28;20059;-78
2021/12/28 01:24:19;;;;;;;249.60;45.33;;;6.10;99.90;;;;;;5053837;28;20077;-78
2021/12/28 01:26:48;;;;;;;269.17;47.20;;;6.10;99.90;;;;;;5035631;28;20448;-83
2021/12/28 01:29:14;;;;;;;253.00;46.10;;;6.10;99.90;;;;;;5053583;28;20158;-78
2021/12/28 01:31:40;;;;;;;258.30;47.50;;;6.10;99.90;;;;;;5053486;28;20084;-79
2021/12/28 01:34:07;;;;;;;294.17;50.90;;;6.10;99.90;;;;;;5053293;28;20128;-79
2021/12/28 01:36:34;;;;;;;313.15;50.85;;;6.20;99.90;;;;;;5054000;28;20045;-79
2021/12/28 01:39:00;;;;;;;349.17;51.90;;;6.40;99.90;;;;;;5053235;28;20536;-78
2021/12/28 01:41:26;;;;;;;287.92;47.70;;;6.10;99.90;;;;;;5052708;28;20045;-78
2021/12/28 01:44:01;;;;;;;394.67;57.00;;;6.20;99.90;;;;;;5053467;28;20051;-80
2021/12/28 01:46:27;;;;;;;265.98;47.20;;;6.20;99.90;;;;;;5053393;28;20434;-78
2021/12/28 01:48:53;;;;;;;278.80;46.42;;;6.30;99.90;;;;;;5053148;28;20094;-78
2021/12/28 01:51:21;;;;;;;341.70;52.65;;;6.30;99.90;;;;;;5053567;28;20041;-78
2021/12/28 01:53:49;;;;;;;323.38;50.53;;;6.30;99.90;;;;;;5053622;28;20076;-78
2021/12/28 01:56:22;;;;;;;305.73;49.35;;;6.70;99.90;;;;;;5052421;28;20387;-78
2021/12/28 01:58:49;;;;;;;308.83;49.65;;;6.40;99.90;;;;;;5035343;28;20399;-78
2021/12/28 02:01:16;;;;;;;305.08;49.88;;;6.30;99.90;;;;;;5055970;28;20132;-78
2021/12/28 02:03:43;;;;;;;249.50;45.35;;;6.30;99.90;;;;;;5057141;28;20052;-86
2021/12/28 02:06:10;;;;;;;248.55;44.55;;;6.30;99.90;;;;;;5039507;28;20144;-78
2021/12/28 02:08:38;;;;;;;270.05;46.08;;;6.30;99.90;;;;;;5057566;28;20514;-78
2021/12/28 02:11:05;;;;;;;258.23;46.17;;;6.30;99.90;;;;;;5055929;28;20135;-78
2021/12/28 02:13:31;;;;;;;294.48;49.35;;;6.30;99.90;;;;;;5057690;28;20044;-87
2021/12/28 02:16:00;;;;;;;261.85;47.72;;;6.30;99.90;;;;;;5057098;28;20125;-79
2021/12/28 02:18:29;;;;;;;268.45;47.30;;;6.30;99.90;;;;;;5056743;28;20049;-78
2021/12/28 02:20:57;;;;;;;216.73;42.40;;;6.30;99.90;;;;;;5057161;28;20040;-78
2021/12/28 02:23:23;;;;;;;214.48;42.10;;;6.60;99.90;;;;;;5055792;28;20431;-79
2021/12/28 02:25:50;;;;;;;197.98;40.22;;;6.40;99.90;;;;;;5056968;28;20037;-78
2021/12/28 02:28:16;;;;;;;177.15;38.45;;;6.70;99.90;;;;;;5039049;28;20045;-78
2021/12/28 02:30:45;;;;;;;168.57;38.15;;;6.40;99.90;;;;;;5055351;28;20048;-79
2021/12/28 02:33:11;;;;;;;181.80;38.03;;;6.80;99.90;;;;;;5056866;28;20106;-87
2021/12/28 02:35:38;;;;;;;165.88;38.28;;;6.40;99.90;;;;;;5056793;28;20391;-87
2021/12/28 02:38:07;;;;;;;151.90;37.00;;;6.80;99.90;;;;;;5056608;28;20056;-79
2021/12/28 02:40:35;;;;;;;190.25;38.00;;;6.40;99.90;;;;;;5055511;28;20464;-80
2021/12/28 02:43:03;;;;;;;147.48;36.00;;;6.50;99.90;;;;;;5056649;28;20052;-78
2021/12/28 02:45:35;;;;;;;169.23;37.85;;;6.50;99.90;;;;;;5056581;28;20045;-78
2021/12/28 02:48:02;;;;;;;179.60;39.05;;;6.60;99.90;;;;;;5056623;28;20056;-79
2021/12/28 02:50:32;;;;;;;145.20;35.92;;;6.80;99.90;;;;;;5056317;28;20045;-85
2021/12/28 02:52:59;;;;;;;154.10;37.08;;;6.80;99.90;;;;;;5056340;28;20471;-78
2021/12/28 02:55:32;;;;;;;157.15;36.17;;;6.50;99.90;;;;;;5056356;28;20174;-78
2021/12/28 02:58:10;;;;;;;162.93;36.90;;;6.50;99.90;;;;;;5056409;28;20041;-78
2021/12/28 03:00:40;;;;;;;124.80;33.63;;;6.50;99.90;;;;;;5054995;28;20055;-78
2021/12/28 03:03:27;;;;;;;137.98;33.85;;;6.50;99.90;;;;;;5056464;28;20164;-78
2021/12/28 03:05:55;;;;;;;149.35;35.78;;;6.50;99.90;;;;;;5056167;28;20134;-78
2021/12/28 03:08:23;;;;;;;130.45;34.83;;;6.50;99.90;;;;;;5055990;28;20052;-79
2021/12/28 03:10:50;;;;;;;131.70;34.03;;;6.50;99.90;;;;;;5054985;28;20063;-82
2021/12/28 03:13:25;;;;;;;133.43;34.95;;;6.50;99.90;;;;;;5055343;28;20106;-78
2021/12/28 03:15:52;;;;;;;130.20;33.17;;;6.50;99.90;;;;;;5056110;28;20119;-86
2021/12/28 03:18:18;;;;;;;126.22;33.20;;;6.50;99.90;;;;;;5038065;28;20044;-78
2021/12/28 03:20:44;;;;;;;112.97;32.47;;;6.50;99.90;;;;;;5054537;28;20527;-78
2021/12/28 03:23:17;;;;;;;142.10;35.15;;;6.50;99.90;;;;;;5055764;28;20047;-78
2021/12/28 03:25:43;;;;;;;133.38;33.42;;;6.50;99.90;;;;;;5055554;28;20045;-82
2021/12/28 03:28:16;;;;;;;133.00;34.65;;;6.50;99.90;;;;;;5054670;28;20449;-86
2021/12/28 03:30:42;;;;;;;133.25;33.75;;;6.50;99.90;;;;;;5054490;28;20395;-86
2021/12/28 03:33:07;;;;;;;137.65;33.63;;;6.50;99.90;;;;;;5055690;28;20040;-78
2021/12/28 03:35:33;;;;;;;159.13;35.70;;;6.50;99.90;;;;;;5055425;28;20044;-78
2021/12/28 03:37:58;;;;;;;149.25;34.90;;;6.60;99.90;;;;;;5054094;28;20048;-78
2021/12/28 03:40:24;;;;;;;136.35;34.08;;;6.60;99.90;;;;;;5055283;28;20123;-78
2021/12/28 03:42:50;;;;;;;122.90;31.73;;;6.60;99.90;;;;;;5055312;28;20115;-78
2021/12/28 03:45:16;;;;;;;146.70;33.95;;;6.70;99.90;;;;;;5055480;28;20041;-86
2021/12/28 03:47:42;;;;;;;146.18;33.72;;;6.60;99.90;;;;;;5055356;28;20037;-86
2021/12/28 03:50:09;;;;;;;139.05;32.70;;;6.60;99.90;;;;;;5055257;28;20399;-78
2021/12/28 03:52:35;;;;;;;151.85;33.47;;;6.60;99.90;;;;;;5055241;28;20060;-79
2021/12/28 03:55:01;;;;;;;118.10;31.17;;;7.10;99.90;;;;;;5053900;28;20045;-78
2021/12/28 03:57:27;;;;;;;102.20;30.38;;;6.70;99.90;;;;;;5053954;28;20051;-78
2021/12/28 03:59:52;;;;;;;123.90;31.80;;;6.70;99.90;;;;;;5055157;28;20041;-83
2021/12/28 04:02:18;;;;;;;113.63;30.58;;;7.00;99.90;;;;;;5054065;28;20162;-78
2021/12/28 04:04:44;;;;;;;120.78;30.88;;;6.70;99.90;;;;;;5053548;28;20041;-79
2021/12/28 04:07:13;;;;;;;111.97;30.70;;;6.70;99.90;;;;;;5055069;28;20037;-78
2021/12/28 04:10:12;;;;;;;106.13;29.20;;;6.70;99.90;;;;;;5054824;28;20071;-83
2021/12/28 04:12:31;;;;;;;109.45;28.40;;;6.70;99.90;;;;;;5051669;28;20056;-86
2021/12/28 04:14:57;;;;;;;89.45;28.02;;;6.70;99.90;;;;;;5054875;28;20049;-78
2021/12/28 04:17:25;;;;;;;94.43;27.17;;;6.70;99.90;;;;;;5054659;28;20037;-79
2021/12/28 04:19:51;;;;;;;107.22;28.48;;;6.60;99.90;;;;;;5054658;28;20053;-79
2021/12/28 04:22:17;;;;;;;99.82;28.63;;;6.70;99.90;;;;;;5054530;28;20041;-86
2021/12/28 04:24:42;;;;;;;90.60;26.95;;;6.60;99.90;;;;;;5053732;28;20041;-85
2021/12/28 04:27:08;;;;;;;92.45;25.92;;;6.60;99.90;;;;;;5054704;28;20402;-78
2021/12/28 04:29:34;;;;;;;90.38;26.85;;;6.50;99.90;;;;;;5054328;28;20133;-79
2021/12/28 04:32:00;;;;;;;84.50;26.35;;;6.50;99.90;;;;;;5054500;28;20076;-78
2021/12/28 04:34:25;;;;;;;93.18;27.23;;;6.50;99.90;;;;;;5054361;28;20471;-78
2021/12/28 04:36:51;;;;;;;92.45;27.27;;;6.40;99.90;;;;;;5054170;28;20068;-78
2021/12/28 04:39:17;;;;;;;80.25;24.98;;;6.40;99.90;;;;;;5054470;28;20059;-79
2021/12/28 04:41:42;;;;;;;80.82;24.65;;;6.80;99.90;;;;;;5056201;28;20045;-82
2021/12/28 04:44:11;;;;;;;92.50;25.55;;;6.40;99.90;;;;;;5055262;28;20052;-86
2021/12/28 04:46:37;;;;;;;77.97;23.67;;;6.40;99.90;;;;;;5054208;28;20041;-82
2021/12/28 04:49:02;;;;;;;87.95;25.30;;;6.50;99.90;;;;;;5052830;28;20049;-78
2021/12/28 04:51:28;;;;;;;75.63;23.58;;;6.60;99.90;;;;;;5054113;28;20045;-86
2021/12/28 04:53:55;;;;;;;79.07;23.67;;;6.40;99.90;;;;;;5053948;28;20445;-78
2021/12/28 04:56:21;;;;;;;74.63;22.00;;;6.40;99.90;;;;;;5054365;28;20102;-78
2021/12/28 04:58:47;;;;;;;76.03;22.77;;;6.50;99.90;;;;;;5054090;28;20099;-78
2021/12/28 05:01:13;;;;;;;68.78;21.63;;;6.50;99.90;;;;;;5053082;28;20483;-79
2021/12/28 05:03:39;;;;;;;62.60;22.10;;;6.40;99.90;;;;;;5054068;28;20045;-86
2021/12/28 05:06:05;;;;;;;70.97;22.95;;;6.50;99.90;;;;;;5053836;28;20041;-86
2021/12/28 05:08:31;;;;;;;69.53;22.92;;;6.40;99.90;;;;;;5053685;28;20045;-87
2021/12/28 05:10:56;;;;;;;73.68;23.05;;;6.40;99.90;;;;;;5053930;28;20340;-78
2021/12/28 05:13:23;;;;;;;72.13;22.63;;;6.40;99.90;;;;;;5053750;28;20131;-78
2021/12/28 05:15:49;;;;;;;67.20;21.85;;;6.50;99.90;;;;;;5053830;28;20430;-86
2021/12/28 05:18:15;;;;;;;58.65;20.80;;;6.50;99.90;;;;;;5053761;28;20045;-78
2021/12/28 05:20:42;;;;;;;57.65;20.00;;;6.50;99.90;;;;;;5053496;28;20498;-86
2021/12/28 05:23:08;;;;;;;64.05;21.13;;;6.80;99.90;;;;;;5053451;28;20437;-78
2021/12/28 05:25:34;;;;;;;65.25;21.30;;;6.50;99.90;;;;;;5053769;28;20110;-79
2021/12/28 05:28:01;;;;;;;53.08;19.45;;;6.50;99.90;;;;;;5053476;28;20044;-78
2021/12/28 05:30:27;;;;;;;55.10;19.25;;;6.50;99.90;;;;;;5053358;28;20530;-78
2021/12/28 05:32:52;;;;;;;57.38;19.25;;;6.50;99.90;;;;;;5053339;28;20095;-78
2021/12/28 05:35:18;;;;;;;52.95;19.30;;;6.50;99.90;;;;;;5053080;28;20041;-78
2021/12/28 05:37:44;;;;;;;52.90;19.63;;;6.50;99.90;;;;;;5053281;28;20045;-78
2021/12/28 05:40:13;;;;;;;53.90;18.10;;;7.00;99.90;;;;;;5052062;28;20049;-86
2021/12/28 05:42:38;;;;;;;52.88;18.58;;;6.50;99.90;;;;;;5053576;28;20380;-82
2021/12/28 05:45:05;;;;;;;46.35;17.75;;;7.00;99.90;;;;;;5051947;28;20128;-78
2021/12/28 05:47:31;;;;;;;56.42;16.90;;;6.50;99.90;;;;;;5053422;28;20060;-78
2021/12/28 05:49:56;;;;;;;46.40;16.67;;;6.60;99.90;;;;;;5053115;28;20492;-86
2021/12/28 05:52:22;;;;;;;42.30;16.23;;;6.60;99.90;;;;;;5053256;28;20051;-78
2021/12/28 05:54:48;;;;;;;50.17;17.63;;;6.60;99.90;;;;;;5051622;28;20126;-87
2021/12/28 05:57:14;;;;;;;43.67;15.85;;;6.60;99.90;;;;;;5053223;28;20041;-79
2021/12/28 05:59:39;;;;;;;43.78;16.48;;;6.60;99.90;;;;;;5053232;28;20060;-87
2021/12/28 06:02:06;;;;;;;45.67;16.20;;;6.60;99.90;;;;;;5052824;28;20040;-78
2021/12/28 06:04:33;;;;;;;46.25;15.80;;;6.90;99.90;;;;;;5053623;28;20044;-87
2021/12/28 06:06:58;;;;;;;44.67;15.80;;;6.80;99.90;;;;;;5052139;28;20433;-86
2021/12/28 06:09:24;;;;;;;38.03;15.13;;;6.50;99.90;;;;;;5051876;28;20044;-78
2021/12/28 06:11:49;;;;;;;41.40;16.08;;;6.60;99.90;;;;;;5053353;28;20037;-78
2021/12/28 06:14:15;;;;;;;38.88;14.98;;;6.60;99.90;;;;;;5053236;28;20475;-78
2021/12/28 06:16:41;;;;;;;34.97;14.05;;;6.60;99.90;;;;;;5053320;28;20112;-78
2021/12/28 06:19:07;;;;;;;40.03;13.85;;;6.60;99.90;;;;;;5052907;28;20066;-81
2021/12/28 06:21:35;;;;;;;41.13;14.13;;;6.60;99.90;;;;;;5053001;28;20041;-78
2021/12/28 06:24:02;;;;;;;37.72;14.23;;;6.60;99.90;;;;;;5052797;28;20053;-78
2021/12/28 06:26:29;;;;;;;35.67;14.65;;;6.60;99.90;;;;;;5052984;28;20475;-78
2021/12/28 06:28:55;;;;;;;35.65;13.18;;;7.20;99.90;;;;;;5053161;28;20045;-78
2021/12/28 06:31:21;;;;;;;37.72;13.93;;;6.70;99.90;;;;;;5052813;28;20064;-78
2021/12/28 06:33:47;;;;;;;37.20;13.90;;;6.60;99.90;;;;;;5053969;28;20099;-78
2021/12/28 06:36:13;;;;;;;34.53;13.40;;;6.60;99.90;;;;;;5052798;28;20099;-78
2021/12/28 06:38:38;;;;;;;34.72;13.15;;;6.60;99.90;;;;;;5052524;28;20044;-82
2021/12/28 06:41:06;;;;;;;31.00;13.48;;;6.80;99.90;;;;;;5052662;28;20045;-86
2021/12/28 06:43:32;;;;;;;33.58;13.45;;;6.70;99.90;;;;;;5051596;28;20049;-86
2021/12/28 06:45:57;;;;;;;31.50;13.07;;;6.80;99.90;;;;;;5052898;28;20044;-78
2021/12/28 06:48:23;;;;;;;32.80;13.38;;;6.60;99.90;;;;;;5056257;28;20048;-78
2021/12/28 06:50:49;;;;;;;38.20;13.50;;;6.60;99.90;;;;;;5058973;28;20441;-78
2021/12/28 06:53:16;;;;;;;33.42;13.57;;;7.00;99.90;;;;;;5056649;28;20056;-78
2021/12/28 06:55:41;;;;;;;30.02;12.77;;;6.60;99.90;;;;;;5056288;28;20395;-87
2021/12/28 06:58:07;;;;;;;33.55;12.57;;;6.60;99.90;;;;;;5056324;28;20033;-85
2021/12/28 07:00:33;;;;;;;34.38;13.32;;;6.60;99.90;;;;;;5055203;28;20124;-81
2021/12/28 07:02:59;;;;;;;34.03;13.60;;;6.70;99.90;;;;;;5055219;28;20045;-78
2021/12/28 07:05:25;;;;;;;35.65;13.40;;;6.90;99.90;;;;;;5056857;28;20052;-86
2021/12/28 07:07:51;;;;;;;32.10;12.82;;;7.00;99.90;;;;;;5056239;28;20048;-79
2021/12/28 07:10:20;;;;;;;33.63;12.38;;;7.00;99.90;;;;;;5056020;28;20119;-78
2021/12/28 07:12:50;;;;;;;32.92;12.48;;;7.00;99.90;;;;;;5056195;28;20087;-78
2021/12/28 07:15:17;;;;;;;33.75;12.80;;;6.60;99.90;;;;;;5054775;28;20047;-79
2021/12/28 07:17:43;;;;;;;36.70;12.63;;;6.70;99.90;;;;;;5055926;28;20041;-79
2021/12/28 07:20:09;;;;;;;31.98;12.18;;;6.60;99.90;;;;;;5055891;28;20124;-78
2021/12/28 07:22:35;;;;;;;27.88;11.85;;;6.70;99.90;;;;;;5055834;28;20041;-78
2021/12/28 07:25:01;;;;;;;30.20;12.23;;;6.70;99.90;;;;;;5054287;28;20045;-78
2021/12/28 07:27:27;;;;;;;34.92;12.30;;;6.70;99.90;;;;;;5054387;28;20365;-87
2021/12/28 07:29:52;;;;;;;25.98;11.55;;;6.60;99.90;;;;;;5056191;28;20061;-79
2021/12/28 07:32:18;;;;;;;34.13;11.57;;;6.70;99.90;;;;;;5055711;28;20052;-78
2021/12/28 07:34:44;;;;;;;24.67;10.85;;;7.10;99.90;;;;;;5038034;28;20045;-78
2021/12/28 07:37:09;;;;;;;33.63;11.38;;;6.70;99.90;;;;;;5055578;28;20411;-87
2021/12/28 07:39:35;;;;;;;30.85;11.45;;;6.80;99.90;;;;;;5055435;28;20041;-79
2021/12/28 07:42:01;;;;;;;30.45;10.38;;;6.80;99.90;;;;;;5055392;28;20040;-78
2021/12/28 07:44:27;;;;;;;26.70;11.35;;;6.80;99.90;;;;;;5055505;28;20060;-79
2021/12/28 07:46:52;;;;;;;30.30;10.80;;;6.80;99.90;;;;;;5055429;28;20045;-78
2021/12/28 07:49:18;;;;;;;26.00;10.90;;;6.80;99.90;;;;;;5037664;28;20134;-85
2021/12/28 07:51:43;;;;;;;27.48;10.52;;;6.90;99.90;;;;;;5055314;28;20411;-79
2021/12/28 07:54:09;;;;;;;30.60;9.60;;;6.80;99.90;;;;;;5053942;28;20407;-88
2021/12/28 07:56:35;;;;;;;23.75;10.23;;;6.90;99.90;;;;;;5053758;28;20036;-78
2021/12/28 07:59:00;;;;;;;26.65;9.88;;;6.90;99.90;;;;;;5054788;28;20045;-86
2021/12/28 08:01:26;;;;;;;24.80;10.10;;;6.90;99.90;;;;;;5055149;28;20076;-78
2021/12/28 08:03:52;;;;;;;23.35;9.73;;;6.90;99.90;;;;;;5055097;28;20416;-87
2021/12/28 08:06:17;;;;;;;25.85;9.70;;;7.00;99.90;;;;;;5036902;28;20099;-78
2021/12/28 08:08:43;;;;;;;27.30;10.10;;;7.00;99.90;;;;;;5055006;28;20040;-85
2021/12/28 08:11:09;;;;;;;25.75;9.40;;;7.00;99.90;;;;;;5053745;28;20037;-78
2021/12/28 08:13:34;;;;;;;24.33;9.30;;;7.00;99.90;;;;;;5055017;28;20052;-78
2021/12/28 08:16:00;;;;;;;21.92;9.07;;;7.00;99.90;;;;;;5054906;28;20056;-87
2021/12/28 08:18:25;;;;;;;25.10;10.02;;;7.00;99.90;;;;;;5053321;28;20041;-78
2021/12/28 08:20:51;;;;;;;25.33;9.15;;;7.30;99.90;;;;;;5054755;28;20415;-84
2021/12/28 08:23:17;;;;;;;24.65;9.75;;;7.00;99.90;;;;;;5054620;28;20115;-78
2021/12/28 08:25:42;;;;;;;27.38;9.70;;;7.00;99.90;;;;;;5054609;28;20403;-79
2021/12/28 08:28:08;;;;;;;24.00;9.20;;;7.00;99.90;;;;;;5053168;28;20045;-78
2021/12/28 08:30:36;;;;;;;25.05;9.55;;;6.90;99.90;;;;;;5054516;28;20130;-87
2021/12/28 08:33:07;;;;;;;26.48;9.40;;;6.90;99.90;;;;;;5054743;28;20056;-78
2021/12/28 08:35:34;;;;;;;27.02;8.98;;;7.00;99.90;;;;;;5054528;28;20044;-82
2021/12/28 08:38:00;;;;;;;21.80;8.55;;;7.00;99.90;;;;;;5053009;28;20106;-78
2021/12/28 08:40:25;;;;;;;25.20;9.13;;;6.90;99.90;;;;;;5055382;28;20041;-80
2021/12/28 08:42:51;;;;;;;30.58;9.45;;;6.90;99.90;;;;;;5056980;28;20041;-80
2021/12/28 08:45:18;;;;;;;25.30;8.70;;;7.00;99.90;;;;;;5056958;28;20433;-80
2021/12/28 08:47:46;;;;;;;30.15;9.27;;;7.00;99.90;;;;;;5055524;28;20052;-80
2021/12/28 08:50:12;;;;;;;22.70;9.10;;;7.00;99.90;;;;;;5056376;28;20446;-80
2021/12/28 08:52:38;;;;;;;23.33;9.07;;;7.00;99.90;;;;;;5056145;28;20067;-89
2021/12/28 08:55:06;;;;;;;29.10;9.88;;;7.50;99.90;;;;;;5055917;28;20063;-88
2021/12/28 08:57:32;;;;;;;26.15;8.95;;;7.10;99.90;;;;;;5056912;28;20041;-87
2021/12/28 08:59:57;;;;;;;25.40;9.82;;;7.10;99.90;;;;;;5058328;28;20174;-88
2021/12/28 09:02:23;;;;;;;24.75;9.40;;;7.10;99.90;;;;;;5055934;28;20045;-83
2021/12/28 09:04:49;;;;;;;25.05;10.45;;;7.20;99.90;;;;;;5055221;28;20049;-89
2021/12/28 09:07:18;;;;;;;25.95;9.95;;;7.50;99.90;;;;;;5057649;28;20047;-79
2021/12/28 09:09:45;;;;;;;22.13;9.90;;;7.30;99.90;;;;;;5056164;28;20037;-80
2021/12/28 09:12:11;;;;;;;26.00;10.27;;;7.30;99.90;;;;;;5057157;28;20090;-88
2021/12/28 09:14:37;;;;;;;30.90;10.68;;;7.30;99.90;;;;;;5038468;28;20064;-81
2021/12/28 09:17:04;;;;;;;27.60;10.88;;;7.40;99.90;;;;;;5057144;28;20057;-86
2021/12/28 09:19:30;;;;;;;28.13;11.50;;;7.40;99.90;;;;;;5057393;28;20044;-80
2021/12/28 09:21:56;;;;;;;26.13;11.75;;;7.40;99.90;;;;;;5056554;28;20056;-79
2021/12/28 09:24:22;;;;;;;30.20;11.40;;;7.60;99.90;;;;;;5056275;28;20036;-79
2021/12/28 09:26:47;;;;;;;32.40;11.60;;;7.40;99.90;;;;;;5054559;28;20049;-80
2021/12/28 09:29:13;;;;;;;32.33;11.75;;;7.40;99.90;;;;;;5056946;28;20399;-82
2021/12/28 09:31:39;;;;;;;34.25;12.20;;;7.40;99.90;;;;;;5054301;28;20061;-88
2021/12/28 09:34:05;;;;;;;31.33;12.73;;;7.40;99.90;;;;;;5055890;28;20120;-89
2021/12/28 09:36:31;;;;;;;27.73;13.60;;;7.80;99.90;;;;;;5055429;28;20399;-79
2021/12/28 09:38:56;;;;;;;35.75;12.95;;;7.40;99.90;;;;;;5055683;28;20098;-79
2021/12/28 09:41:22;;;;;;;30.25;13.85;;;7.40;99.90;;;;;;5054660;28;20056;-79
2021/12/28 09:43:48;;;;;;;35.00;13.10;;;7.40;99.90;;;;;;5037723;28;20128;-80
2021/12/28 09:46:15;;;;;;;36.35;14.45;;;7.40;99.90;;;;;;5055652;28;20483;-86
2021/12/28 09:48:41;;;;;;;34.10;13.60;;;7.80;99.90;;;;;;5055871;28;20052;-87
2021/12/28 09:51:07;;;;;;;34.35;14.23;;;7.40;99.90;;;;;;5055843;28;20037;-88
2021/12/28 09:53:33;;;;;;;32.95;13.60;;;7.40;99.90;;;;;;5055375;28;20045;-82
2021/12/28 09:55:59;;;;;;;33.53;13.80;;;7.60;99.90;;;;;;5055333;28;20044;-80
2021/12/28 09:58:25;;;;;;;36.67;14.52;;;7.50;99.90;;;;;;5053664;28;20041;-80
2021/12/28 10:00:51;;;;;;;35.85;14.43;;;7.70;99.90;;;;;;5053112;28;20088;-79
2021/12/28 10:03:17;;;;;;;37.50;14.07;;;7.90;99.90;;;;;;5053711;28;20084;-79
2021/12/28 10:05:44;;;;;;;33.80;13.63;;;7.50;99.90;;;;;;5051510;28;20475;-79
2021/12/28 10:08:10;;;;;;;32.75;14.13;;;7.60;99.90;;;;;;5053579;28;20132;-79
2021/12/28 10:10:39;;;;;;;33.25;14.02;;;7.60;99.90;;;;;;5052993;28;20041;-79
2021/12/28 10:13:08;;;;;;;31.90;14.55;;;7.80;99.90;;;;;;5053496;28;20457;-79
2021/12/28 10:15:38;;;;;;;31.95;13.27;;;7.90;99.90;;;;;;5052964;28;20048;-79
2021/12/28 10:18:07;;;;;;;30.63;14.43;;;7.60;99.90;;;;;;5052980;28;20088;-79
2021/12/28 10:20:46;;;;;;;28.70;13.60;;;7.70;99.90;;;;;;5052841;28;20128;-79
2021/12/28 10:23:18;;;;;;;29.02;13.15;;;7.70;99.90;;;;;;5054180;28;20063;-79
2021/12/28 10:25:47;;;;;;;29.33;12.63;;;7.70;99.90;;;;;;5036761;28;20053;-84
2021/12/28 10:28:25;;;;;;;34.28;12.70;;;7.70;99.90;;;;;;5037047;28;20046;-80
2021/12/28 10:30:57;;;;;;;31.88;12.93;;;7.80;99.90;;;;;;5036665;28;20621;-79
2021/12/28 10:33:29;;;;;;;25.75;12.27;;;7.80;99.90;;;;;;5037204;28;20068;-80
2021/12/28 10:35:58;;;;;;;31.88;12.85;;;7.80;99.90;;;;;;5037053;28;20044;-79
2021/12/28 10:38:27;;;;;;;25.45;12.35;;;7.80;99.90;;;;;;5036831;28;20050;-79
2021/12/28 10:40:56;;;;;;;26.85;12.40;;;7.80;99.90;;;;;;5036809;28;20068;-79
2021/12/28 10:43:31;;;;;;;25.08;11.82;;;7.90;99.90;;;;;;5037049;28;20037;-79
2021/12/28 10:46:03;;;;;;;27.83;11.60;;;8.40;99.90;;;;;;5036513;28;20045;-79
2021/12/28 10:48:41;;;;;;;30.63;13.52;;;7.90;99.90;;;;;;5035074;28;20087;-79
2021/12/28 10:51:14;;;;;;;30.33;13.50;;;8.00;99.90;;;;;;5036247;28;20510;-78
2021/12/28 10:54:12;;;;;;;23.83;11.07;;;7.90;99.90;;;;;;5036215;28;20041;-79
2021/12/28 10:56:46;;;;;;;31.15;12.25;;;7.90;99.90;;;;;;5036379;28;20045;-79
2021/12/28 10:59:14;;;;;;;26.27;11.05;;;7.90;99.90;;;;;;5036464;28;20100;-79
2021/12/28 11:01:42;;;;;;;29.92;10.75;;;7.90;99.90;;;;;;5036372;28;20045;-79
2021/12/28 11:04:13;;;;;;;20.83;10.10;;;8.00;99.90;;;;;;5036550;28;20045;-79
2021/12/28 11:06:50;;;;;;;21.95;11.32;;;8.00;99.90;;;;;;5036193;28;20478;-79
2021/12/28 11:09:17;;;;;;;20.10;9.77;;;8.00;99.90;;;;;;5035205;28;20041;-79
2021/12/28 11:11:43;;;;;;;21.08;9.77;;;8.30;99.90;;;;;;5035020;28;20046;-86
2021/12/28 11:14:12;;;;;;;17.65;8.70;;;8.00;99.90;;;;;;5035932;28;20044;-79
2021/12/28 11:16:39;;;;;;;19.75;8.93;;;8.10;99.90;;;;;;5035782;28;20110;-79
2021/12/28 11:19:07;;;;;;;17.70;8.43;;;8.10;99.90;;;;;;5036244;28;20175;-79
2021/12/28 11:21:36;;;;;;;16.63;8.20;;;8.10;99.90;;;;;;5018124;28;20054;-84
2021/12/28 11:24:10;;;;;;;16.73;8.48;;;8.10;99.90;;;;;;5036033;28;20445;-79
2021/12/28 11:26:37;;;;;;;16.73;8.10;;;8.10;99.90;;;;;;5035493;28;20045;-79
2021/12/28 11:29:11;;;;;;;16.88;7.60;;;8.10;99.90;;;;;;5034705;28;20084;-79
2021/12/28 11:32:00;;;;;;;14.85;7.93;;;8.10;99.90;;;;;;5034070;28;20143;-79
2021/12/28 11:34:27;;;;;;;18.58;7.78;;;8.70;99.90;;;;;;5035161;28;20120;-86
2021/12/28 11:36:59;;;;;;;14.13;7.07;;;8.20;99.90;;;;;;5035761;28;20057;-79
2021/12/28 11:39:28;;;;;;;12.23;6.60;;;8.20;99.90;;;;;;5035657;28;20045;-78
2021/12/28 11:41:56;;;;;;;16.77;7.50;;;8.30;99.90;;;;;;5035519;28;20038;-79
2021/12/28 11:44:23;;;;;;;12.27;6.18;;;8.40;99.90;;;;;;5035454;28;20102;-78
2021/12/28 11:46:50;;;;;;;11.63;6.30;;;8.30;99.90;;;;;;5035544;28;20045;-79
2021/12/28 11:49:16;;;;;;;13.35;7.40;;;8.30;99.90;;;;;;5035297;28;20045;-79
2021/12/28 11:51:46;;;;;;;11.25;6.15;;;8.30;99.90;;;;;;5035412;28;20056;-79
2021/12/28 11:54:14;;;;;;;13.95;6.90;;;8.30;99.90;;;;;;5035523;28;20045;-79
2021/12/28 11:56:49;;;;;;;12.20;6.05;;;8.30;99.90;;;;;;5033861;28;20107;-79
2021/12/28 11:59:20;;;;;;;12.35;7.18;;;8.40;99.90;;;;;;5034189;28;20049;-82
2021/12/28 12:02:01;;;;;;;12.27;6.60;;;8.40;99.90;;;;;;5018294;28;20124;-79
2021/12/28 12:04:30;;;;;;;12.20;6.57;;;8.40;99.90;;;;;;5033733;28;20061;-79
2021/12/28 12:07:05;;;;;;;14.57;7.05;;;8.40;99.90;;;;;;5033836;28;20049;-79
2021/12/28 12:09:34;;;;;;;12.25;6.72;;;8.40;99.90;;;;;;5033783;28;20057;-79
2021/12/28 12:12:15;;;;;;;13.57;7.07;;;8.40;99.90;;;;;;5034972;28;20076;-79
2021/12/28 12:15:00;;;;;;;14.52;7.05;;;8.40;99.90;;;;;;5034979;28;20037;-80
2021/12/28 12:17:37;;;;;;;16.50;7.57;;;8.40;99.90;;;;;;5035294;28;20049;-79
2021/12/28 12:20:22;;;;;;;13.85;6.35;;;8.50;99.90;;;;;;5036630;28;20050;-80
2021/12/28 12:23:12;;;;;;;14.45;7.10;;;8.70;99.90;;;;;;5036835;28;20690;-80
2021/12/28 12:25:48;;;;;;;15.70;7.15;;;8.50;99.90;;;;;;5035502;28;20037;-81
2021/12/28 12:28:15;;;;;;;15.70;7.47;;;8.50;99.90;;;;;;5035411;28;20471;-80
2021/12/28 12:30:54;;;;;;;15.13;7.40;;;8.50;99.90;;;;;;5046316;28;20399;-80
2021/12/28 12:33:21;;;;;;;13.45;7.47;;;8.50;99.90;;;;;;5055320;28;20049;-80
2021/12/28 12:35:46;;;;;;;14.15;7.13;;;8.60;99.90;;;;;;5055906;28;20097;-80
2021/12/28 12:38:12;;;;;;;13.95;7.13;;;8.70;99.90;;;;;;5054472;28;20195;-84